sensor_id;sensor_type;location;lat;lon;timestamp;temperature;humidity
71367;DHT22;60030;52.274;8.040;2022-10-31T00:02:08;16.30;99.90
71367;DHT22;60030;52.274;8.040;2022-10-31T00:04:35;16.40;99.90
71367;DHT22;60030;52.274;8.040;2022-10-31T00:07:02;16.30;99.90
71367;DHT22;60030;52.274;8.040;2022-10-31T00:09:31;16.20;99.90
71367;DHT22;60030;52.274;8.040;2022-10-31T00:11:58;16.00;99.90
71367;DHT22;60030;52.274;8.040;2022-10-31T00:14:25;16.00;99.90
71367;DHT22;60030;52.274;8.040;2022-10-31T00:16:52;15.90;99.90
71367;DHT22;60030;52.274;8.040;2022-10-31T00:19:19;15.80;99.90
71367;DHT22;60030;52.274;8.040;2022-10-31T00:21:46;15.70;99.90
71367;DHT22;60030;52.274;8.040;2022-10-31T00:24:13;15.60;99.90
71367;DHT22;60030;52.274;8.040;2022-10-31T00:26:42;15.60;99.90
71367;DHT22;60030;52.274;8.040;2022-10-31T00:29:09;15.50;99.90
71367;DHT22;60030;52.274;8.040;2022-10-31T00:31:38;15.50;99.90
71367;DHT22;60030;52.274;8.040;2022-10-31T00:34:05;15.40;99.90
71367;DHT22;60030;52.274;8.040;2022-10-31T00:36:34;15.40;99.90
71367;DHT22;60030;52.274;8.040;2022-10-31T00:39:01;15.30;99.90
71367;DHT22;60030;52.274;8.040;2022-10-31T00:41:29;15.30;99.90
71367;DHT22;60030;52.274;8.040;2022-10-31T00:43:57;15.20;99.90
71367;DHT22;60030;52.274;8.040;2022-10-31T00:46:25;15.20;99.90
71367;DHT22;60030;52.274;8.040;2022-10-31T00:48:52;15.20;99.90
71367;DHT22;60030;52.274;8.040;2022-10-31T00:51:19;15.20;99.90
71367;DHT22;60030;52.274;8.040;2022-10-31T00:53:46;15.10;99.90
71367;DHT22;60030;52.274;8.040;2022-10-31T00:56:13;15.10;99.90
71367;DHT22;60030;52.274;8.040;2022-10-31T00:58:41;15.10;99.90
71367;DHT22;60030;52.274;8.040;2022-10-31T01:01:10;15.10;99.90
71367;DHT22;60030;52.274;8.040;2022-10-31T01:03:37;15.00;99.90
71367;DHT22;60030;52.274;8.040;2022-10-31T01:06:11;14.90;99.90
71367;DHT22;60030;52.274;8.040;2022-10-31T01:08:38;14.90;99.90
71367;DHT22;60030;52.274;8.040;2022-10-31T01:11:07;14.90;99.90
71367;DHT22;60030;52.274;8.040;2022-10-31T01:13:35;14.80;99.90
71367;DHT22;60030;52.274;8.040;2022-10-31T01:16:04;14.80;99.90
71367;DHT22;60030;52.274;8.040;2022-10-31T01:18:34;14.80;99.90
71367;DHT22;60030;52.274;8.040;2022-10-31T01:21:03;14.80;99.90
71367;DHT22;60030;52.274;8.040;2022-10-31T01:23:30;14.80;99.90
71367;DHT22;60030;52.274;8.040;2022-10-31T01:26:07;14.60;99.90
71367;DHT22;60030;52.274;8.040;2022-10-31T01:28:35;14.60;99.90
71367;DHT22;60030;52.274;8.040;2022-10-31T01:31:06;14.70;99.90
71367;DHT22;60030;52.274;8.040;2022-10-31T01:33:36;14.80;99.90
71367;DHT22;60030;52.274;8.040;2022-10-31T01:36:12;14.70;99.90
71367;DHT22;60030;52.274;8.040;2022-10-31T01:38:39;14.80;99.90
71367;DHT22;60030;52.274;8.040;2022-10-31T01:41:07;14.70;99.90
71367;DHT22;60030;52.274;8.040;2022-10-31T01:43:46;14.70;99.90
71367;DHT22;60030;52.274;8.040;2022-10-31T01:46:14;14.70;99.90
71367;DHT22;60030;52.274;8.040;2022-10-31T01:48:44;14.70;99.90
71367;DHT22;60030;52.274;8.040;2022-10-31T01:51:12;14.60;99.90
71367;DHT22;60030;52.274;8.040;2022-10-31T01:53:42;14.60;99.90
71367;DHT22;60030;52.274;8.040;2022-10-31T01:56:12;14.60;99.90
71367;DHT22;60030;52.274;8.040;2022-10-31T01:58:41;14.60;99.90
71367;DHT22;60030;52.274;8.040;2022-10-31T02:01:08;14.60;99.90
71367;DHT22;60030;52.274;8.040;2022-10-31T02:03:35;14.50;99.90
71367;DHT22;60030;52.274;8.040;2022-10-31T02:06:08;14.50;99.90
71367;DHT22;60030;52.274;8.040;2022-10-31T02:08:38;14.40;99.90
71367;DHT22;60030;52.274;8.040;2022-10-31T02:11:07;14.40;99.90
71367;DHT22;60030;52.274;8.040;2022-10-31T02:13:35;14.40;99.90
71367;DHT22;60030;52.274;8.040;2022-10-31T02:16:08;14.40;99.90
71367;DHT22;60030;52.274;8.040;2022-10-31T02:18:35;14.40;99.90
71367;DHT22;60030;52.274;8.040;2022-10-31T02:21:10;14.40;99.90
71367;DHT22;60030;52.274;8.040;2022-10-31T02:24:00;14.40;99.90
71367;DHT22;60030;52.274;8.040;2022-10-31T02:26:57;14.40;99.90
71367;DHT22;60030;52.274;8.040;2022-10-31T02:30:07;14.30;99.90
71367;DHT22;60030;52.274;8.040;2022-10-31T02:32:53;14.30;99.90
71367;DHT22;60030;52.274;8.040;2022-10-31T02:35:35;14.30;99.90
71367;DHT22;60030;52.274;8.040;2022-10-31T02:38:13;14.20;99.90
71367;DHT22;60030;52.274;8.040;2022-10-31T02:40:48;14.30;99.90
71367;DHT22;60030;52.274;8.040;2022-10-31T02:43:29;14.30;99.90
71367;DHT22;60030;52.274;8.040;2022-10-31T02:46:03;14.20;99.90
71367;DHT22;60030;52.274;8.040;2022-10-31T02:48:39;14.20;99.90
71367;DHT22;60030;52.274;8.040;2022-10-31T02:51:08;14.20;99.90
71367;DHT22;60030;52.274;8.040;2022-10-31T02:53:37;14.10;99.90
71367;DHT22;60030;52.274;8.040;2022-10-31T02:56:12;14.00;99.90
71367;DHT22;60030;52.274;8.040;2022-10-31T02:58:42;14.10;99.90
71367;DHT22;60030;52.274;8.040;2022-10-31T03:01:44;14.10;99.90
71367;DHT22;60030;52.274;8.040;2022-10-31T03:07:13;14.00;99.90
71367;DHT22;60030;52.274;8.040;2022-10-31T03:09:52;14.00;99.90
71367;DHT22;60030;52.274;8.040;2022-10-31T03:12:26;14.00;99.90
71367;DHT22;60030;52.274;8.040;2022-10-31T03:14:56;14.00;99.90
71367;DHT22;60030;52.274;8.040;2022-10-31T03:17:29;13.90;99.90
71367;DHT22;60030;52.274;8.040;2022-10-31T03:20:03;13.90;99.90
71367;DHT22;60030;52.274;8.040;2022-10-31T03:22:33;13.90;99.90
71367;DHT22;60030;52.274;8.040;2022-10-31T03:25:03;14.00;99.90
71367;DHT22;60030;52.274;8.040;2022-10-31T03:27:33;13.90;99.90
71367;DHT22;60030;52.274;8.040;2022-10-31T03:30:04;13.90;99.90
71367;DHT22;60030;52.274;8.040;2022-10-31T03:32:46;13.90;99.90
71367;DHT22;60030;52.274;8.040;2022-10-31T03:35:19;13.90;99.90
71367;DHT22;60030;52.274;8.040;2022-10-31T03:37:49;13.80;99.90
71367;DHT22;60030;52.274;8.040;2022-10-31T03:40:19;13.90;99.90
71367;DHT22;60030;52.274;8.040;2022-10-31T03:42:53;13.90;99.90
71367;DHT22;60030;52.274;8.040;2022-10-31T03:45:23;13.70;99.90
71367;DHT22;60030;52.274;8.040;2022-10-31T03:47:51;13.70;99.90
71367;DHT22;60030;52.274;8.040;2022-10-31T03:50:22;13.70;99.90
71367;DHT22;60030;52.274;8.040;2022-10-31T03:52:55;13.60;99.90
71367;DHT22;60030;52.274;8.040;2022-10-31T03:55:26;13.60;99.90
71367;DHT22;60030;52.274;8.040;2022-10-31T03:57:58;13.60;99.90
71367;DHT22;60030;52.274;8.040;2022-10-31T04:00:26;13.60;99.90
71367;DHT22;60030;52.274;8.040;2022-10-31T04:02:57;13.60;99.90
71367;DHT22;60030;52.274;8.040;2022-10-31T04:05:29;13.50;99.90
71367;DHT22;60030;52.274;8.040;2022-10-31T04:08:01;13.50;99.90
71367;DHT22;60030;52.274;8.040;2022-10-31T04:10:31;13.60;99.90
71367;DHT22;60030;52.274;8.040;2022-10-31T04:13:04;13.50;99.90
71367;DHT22;60030;52.274;8.040;2022-10-31T04:15:39;13.50;99.90
71367;DHT22;60030;52.274;8.040;2022-10-31T04:18:08;13.50;99.90
71367;DHT22;60030;52.274;8.040;2022-10-31T04:20:39;13.60;99.90
71367;DHT22;60030;52.274;8.040;2022-10-31T04:23:16;13.60;99.90
71367;DHT22;60030;52.274;8.040;2022-10-31T04:25:44;13.60;99.90
71367;DHT22;60030;52.274;8.040;2022-10-31T04:28:11;13.50;99.90
71367;DHT22;60030;52.274;8.040;2022-10-31T04:30:39;13.50;99.90
71367;DHT22;60030;52.274;8.040;2022-10-31T04:33:06;13.40;99.90
71367;DHT22;60030;52.274;8.040;2022-10-31T04:35:34;13.40;99.90
71367;DHT22;60030;52.274;8.040;2022-10-31T04:38:02;13.40;99.90
71367;DHT22;60030;52.274;8.040;2022-10-31T04:40:30;13.40;99.90
71367;DHT22;60030;52.274;8.040;2022-10-31T04:42:57;13.30;99.90
71367;DHT22;60030;52.274;8.040;2022-10-31T04:45:24;13.30;99.90
71367;DHT22;60030;52.274;8.040;2022-10-31T04:47:56;13.40;99.90
71367;DHT22;60030;52.274;8.040;2022-10-31T04:50:23;13.40;99.90
71367;DHT22;60030;52.274;8.040;2022-10-31T04:52:50;13.40;99.90
71367;DHT22;60030;52.274;8.040;2022-10-31T04:55:25;13.20;99.90
71367;DHT22;60030;52.274;8.040;2022-10-31T04:58:27;13.10;99.90
71367;DHT22;60030;52.274;8.040;2022-10-31T05:00:55;13.20;99.90
71367;DHT22;60030;52.274;8.040;2022-10-31T05:03:23;13.20;99.90
71367;DHT22;60030;52.274;8.040;2022-10-31T05:05:50;13.10;99.90
71367;DHT22;60030;52.274;8.040;2022-10-31T05:08:17;13.10;99.90
71367;DHT22;60030;52.274;8.040;2022-10-31T05:10:46;13.10;99.90
71367;DHT22;60030;52.274;8.040;2022-10-31T05:13:14;13.10;99.90
71367;DHT22;60030;52.274;8.040;2022-10-31T05:16:00;13.20;99.90
71367;DHT22;60030;52.274;8.040;2022-10-31T05:18:45;13.10;99.90
71367;DHT22;60030;52.274;8.040;2022-10-31T05:21:27;13.10;99.90
71367;DHT22;60030;52.274;8.040;2022-10-31T05:23:59;13.10;99.90
71367;DHT22;60030;52.274;8.040;2022-10-31T05:26:28;13.20;99.90
71367;DHT22;60030;52.274;8.040;2022-10-31T05:28:55;13.10;99.90
71367;DHT22;60030;52.274;8.040;2022-10-31T05:31:23;13.00;99.90
71367;DHT22;60030;52.274;8.040;2022-10-31T05:33:51;13.00;99.90
71367;DHT22;60030;52.274;8.040;2022-10-31T05:36:37;13.00;99.90
71367;DHT22;60030;52.274;8.040;2022-10-31T05:39:11;13.00;99.90
71367;DHT22;60030;52.274;8.040;2022-10-31T05:41:46;13.00;99.90
71367;DHT22;60030;52.274;8.040;2022-10-31T05:44:22;12.90;99.90
71367;DHT22;60030;52.274;8.040;2022-10-31T05:47:15;13.00;99.90
71367;DHT22;60030;52.274;8.040;2022-10-31T05:49:55;12.90;99.90
71367;DHT22;60030;52.274;8.040;2022-10-31T05:52:40;12.90;99.90
71367;DHT22;60030;52.274;8.040;2022-10-31T05:55:20;12.90;99.90
71367;DHT22;60030;52.274;8.040;2022-10-31T05:58:03;12.90;99.90
71367;DHT22;60030;52.274;8.040;2022-10-31T06:00:31;12.90;99.90
71367;DHT22;60030;52.274;8.040;2022-10-31T06:03:07;12.90;99.90
71367;DHT22;60030;52.274;8.040;2022-10-31T06:06:00;13.00;99.90
71367;DHT22;60030;52.274;8.040;2022-10-31T06:08:35;12.90;99.90
71367;DHT22;60030;52.274;8.040;2022-10-31T06:11:06;12.90;99.90
71367;DHT22;60030;52.274;8.040;2022-10-31T06:13:53;13.00;99.90
71367;DHT22;60030;52.274;8.040;2022-10-31T06:16:30;13.00;99.90
71367;DHT22;60030;52.274;8.040;2022-10-31T06:19:06;13.00;99.90
71367;DHT22;60030;52.274;8.040;2022-10-31T06:21:34;13.00;99.90
71367;DHT22;60030;52.274;8.040;2022-10-31T06:24:01;12.90;99.90
71367;DHT22;60030;52.274;8.040;2022-10-31T06:26:52;13.00;99.90
71367;DHT22;60030;52.274;8.040;2022-10-31T06:29:21;13.00;99.90
71367;DHT22;60030;52.274;8.040;2022-10-31T06:32:11;13.00;99.90
71367;DHT22;60030;52.274;8.040;2022-10-31T06:34:42;12.80;99.90
71367;DHT22;60030;52.274;8.040;2022-10-31T06:37:11;12.80;99.90
71367;DHT22;60030;52.274;8.040;2022-10-31T06:39:41;12.90;99.90
71367;DHT22;60030;52.274;8.040;2022-10-31T06:42:10;12.80;99.90
71367;DHT22;60030;52.274;8.040;2022-10-31T06:44:38;12.70;99.90
71367;DHT22;60030;52.274;8.040;2022-10-31T06:47:50;12.80;99.90
71367;DHT22;60030;52.274;8.040;2022-10-31T06:50:24;12.80;99.90
71367;DHT22;60030;52.274;8.040;2022-10-31T06:52:53;12.80;99.90
71367;DHT22;60030;52.274;8.040;2022-10-31T06:55:21;12.80;99.90
71367;DHT22;60030;52.274;8.040;2022-10-31T06:57:52;12.80;99.90
71367;DHT22;60030;52.274;8.040;2022-10-31T07:00:20;12.70;99.90
71367;DHT22;60030;52.274;8.040;2022-10-31T07:02:55;12.80;99.90
71367;DHT22;60030;52.274;8.040;2022-10-31T07:05:23;12.90;99.90
71367;DHT22;60030;52.274;8.040;2022-10-31T07:07:52;13.00;99.90
71367;DHT22;60030;52.274;8.040;2022-10-31T07:10:21;13.00;99.90
71367;DHT22;60030;52.274;8.040;2022-10-31T07:12:59;13.00;99.90
71367;DHT22;60030;52.274;8.040;2022-10-31T07:15:29;13.00;99.90
71367;DHT22;60030;52.274;8.040;2022-10-31T07:17:59;13.10;99.90
71367;DHT22;60030;52.274;8.040;2022-10-31T07:20:27;13.20;99.90
71367;DHT22;60030;52.274;8.040;2022-10-31T07:22:54;13.30;99.90
71367;DHT22;60030;52.274;8.040;2022-10-31T07:25:23;13.30;99.90
71367;DHT22;60030;52.274;8.040;2022-10-31T07:28:17;13.40;99.90
71367;DHT22;60030;52.274;8.040;2022-10-31T07:30:51;13.40;99.90
71367;DHT22;60030;52.274;8.040;2022-10-31T07:33:20;13.40;99.90
71367;DHT22;60030;52.274;8.040;2022-10-31T07:36:06;13.50;99.90
71367;DHT22;60030;52.274;8.040;2022-10-31T07:38:33;13.50;99.90
71367;DHT22;60030;52.274;8.040;2022-10-31T07:41:03;13.50;99.90
71367;DHT22;60030;52.274;8.040;2022-10-31T07:43:36;13.50;99.90
71367;DHT22;60030;52.274;8.040;2022-10-31T07:46:17;13.50;99.90
71367;DHT22;60030;52.274;8.040;2022-10-31T07:48:59;13.50;99.90
71367;DHT22;60030;52.274;8.040;2022-10-31T07:51:44;13.60;99.90
71367;DHT22;60030;52.274;8.040;2022-10-31T07:54:30;13.60;99.90
71367;DHT22;60030;52.274;8.040;2022-10-31T07:56:57;13.70;99.90
71367;DHT22;60030;52.274;8.040;2022-10-31T07:59:24;13.80;99.90
71367;DHT22;60030;52.274;8.040;2022-10-31T08:01:53;13.80;99.90
71367;DHT22;60030;52.274;8.040;2022-10-31T08:04:38;13.80;99.90
71367;DHT22;60030;52.274;8.040;2022-10-31T08:07:24;13.90;99.90
71367;DHT22;60030;52.274;8.040;2022-10-31T08:09:58;13.90;99.90
71367;DHT22;60030;52.274;8.040;2022-10-31T08:12:29;13.90;99.90
71367;DHT22;60030;52.274;8.040;2022-10-31T08:14:57;13.90;99.90
71367;DHT22;60030;52.274;8.040;2022-10-31T08:17:26;13.80;99.90
71367;DHT22;60030;52.274;8.040;2022-10-31T08:19:58;13.60;99.90
71367;DHT22;60030;52.274;8.040;2022-10-31T08:22:33;13.80;99.90
71367;DHT22;60030;52.274;8.040;2022-10-31T08:25:01;14.00;99.90
71367;DHT22;60030;52.274;8.040;2022-10-31T08:27:29;14.00;99.90
71367;DHT22;60030;52.274;8.040;2022-10-31T08:29:58;14.00;99.90
71367;DHT22;60030;52.274;8.040;2022-10-31T08:32:27;14.00;99.90
71367;DHT22;60030;52.274;8.040;2022-10-31T08:34:57;13.90;99.90
71367;DHT22;60030;52.274;8.040;2022-10-31T08:37:42;14.10;99.90
71367;DHT22;60030;52.274;8.040;2022-10-31T08:40:11;14.20;99.90
71367;DHT22;60030;52.274;8.040;2022-10-31T08:42:39;14.20;99.90
71367;DHT22;60030;52.274;8.040;2022-10-31T08:45:07;14.20;99.90
71367;DHT22;60030;52.274;8.040;2022-10-31T08:47:36;14.30;99.90
71367;DHT22;60030;52.274;8.040;2022-10-31T08:50:04;14.40;99.90
71367;DHT22;60030;52.274;8.040;2022-10-31T08:52:31;14.40;99.90
71367;DHT22;60030;52.274;8.040;2022-10-31T08:55:01;14.50;99.90
71367;DHT22;60030;52.274;8.040;2022-10-31T08:57:54;14.50;99.90
71367;DHT22;60030;52.274;8.040;2022-10-31T09:00:23;14.50;99.90
71367;DHT22;60030;52.274;8.040;2022-10-31T09:03:02;14.70;99.90
71367;DHT22;60030;52.274;8.040;2022-10-31T09:05:31;14.70;99.90
71367;DHT22;60030;52.274;8.040;2022-10-31T09:08:00;14.70;99.90
71367;DHT22;60030;52.274;8.040;2022-10-31T09:10:30;14.70;99.90
71367;DHT22;60030;52.274;8.040;2022-10-31T09:12:58;14.70;99.90
71367;DHT22;60030;52.274;8.040;2022-10-31T09:15:46;14.90;99.90
71367;DHT22;60030;52.274;8.040;2022-10-31T09:18:22;15.00;99.90
71367;DHT22;60030;52.274;8.040;2022-10-31T09:20:57;15.00;99.90
71367;DHT22;60030;52.274;8.040;2022-10-31T09:23:26;15.20;99.90
71367;DHT22;60030;52.274;8.040;2022-10-31T09:25:54;15.20;99.90
71367;DHT22;60030;52.274;8.040;2022-10-31T09:28:34;15.30;99.90
71367;DHT22;60030;52.274;8.040;2022-10-31T09:31:06;15.30;99.90
71367;DHT22;60030;52.274;8.040;2022-10-31T09:33:55;15.50;99.90
71367;DHT22;60030;52.274;8.040;2022-10-31T09:36:43;15.50;99.90
71367;DHT22;60030;52.274;8.040;2022-10-31T09:39:18;15.60;99.90
71367;DHT22;60030;52.274;8.040;2022-10-31T09:45:07;15.80;99.90
71367;DHT22;60030;52.274;8.040;2022-10-31T09:47:44;15.90;99.90
71367;DHT22;60030;52.274;8.040;2022-10-31T09:50:44;16.00;99.90
71367;DHT22;60030;52.274;8.040;2022-10-31T09:53:36;16.20;99.90
71367;DHT22;60030;52.274;8.040;2022-10-31T09:56:07;16.40;99.90
71367;DHT22;60030;52.274;8.040;2022-10-31T09:58:41;16.50;99.90
71367;DHT22;60030;52.274;8.040;2022-10-31T10:01:17;16.60;99.90
71367;DHT22;60030;52.274;8.040;2022-10-31T10:03:47;16.70;99.90
71367;DHT22;60030;52.274;8.040;2022-10-31T10:06:44;16.80;99.90
71367;DHT22;60030;52.274;8.040;2022-10-31T10:09:49;16.90;99.90
71367;DHT22;60030;52.274;8.040;2022-10-31T10:12:37;17.20;99.90
71367;DHT22;60030;52.274;8.040;2022-10-31T10:15:25;17.40;99.90
71367;DHT22;60030;52.274;8.040;2022-10-31T10:17:59;17.60;99.90
71367;DHT22;60030;52.274;8.040;2022-10-31T10:20:31;17.70;99.90
71367;DHT22;60030;52.274;8.040;2022-10-31T10:23:18;17.80;99.90
71367;DHT22;60030;52.274;8.040;2022-10-31T10:25:52;17.90;99.90
71367;DHT22;60030;52.274;8.040;2022-10-31T10:28:23;17.90;99.90
71367;DHT22;60030;52.274;8.040;2022-10-31T10:30:56;18.00;99.90
71367;DHT22;60030;52.274;8.040;2022-10-31T10:33:31;18.10;99.90
71367;DHT22;60030;52.274;8.040;2022-10-31T10:36:01;18.10;99.90
71367;DHT22;60030;52.274;8.040;2022-10-31T10:38:36;18.20;99.90
71367;DHT22;60030;52.274;8.040;2022-10-31T10:41:10;18.30;99.90
71367;DHT22;60030;52.274;8.040;2022-10-31T10:43:39;18.40;99.90
71367;DHT22;60030;52.274;8.040;2022-10-31T10:46:19;18.50;99.90
71367;DHT22;60030;52.274;8.040;2022-10-31T10:49:16;18.50;99.90
71367;DHT22;60030;52.274;8.040;2022-10-31T10:51:46;18.50;99.90
71367;DHT22;60030;52.274;8.040;2022-10-31T10:54:26;18.60;99.90
71367;DHT22;60030;52.274;8.040;2022-10-31T10:57:01;18.70;99.90
71367;DHT22;60030;52.274;8.040;2022-10-31T10:59:31;18.80;99.90
71367;DHT22;60030;52.274;8.040;2022-10-31T11:01:58;18.80;99.90
71367;DHT22;60030;52.274;8.040;2022-10-31T11:04:30;18.70;99.90
71367;DHT22;60030;52.274;8.040;2022-10-31T11:07:03;18.70;99.90
71367;DHT22;60030;52.274;8.040;2022-10-31T11:09:32;18.70;99.90
71367;DHT22;60030;52.274;8.040;2022-10-31T11:12:05;18.80;99.90
71367;DHT22;60030;52.274;8.040;2022-10-31T11:14:42;18.80;99.90
71367;DHT22;60030;52.274;8.040;2022-10-31T11:17:16;18.90;99.90
71367;DHT22;60030;52.274;8.040;2022-10-31T11:19:44;19.10;99.90
71367;DHT22;60030;52.274;8.040;2022-10-31T11:22:16;19.20;99.90
71367;DHT22;60030;52.274;8.040;2022-10-31T11:24:44;19.30;99.90
71367;DHT22;60030;52.274;8.040;2022-10-31T11:27:15;19.50;99.90
71367;DHT22;60030;52.274;8.040;2022-10-31T11:29:42;19.50;99.90
71367;DHT22;60030;52.274;8.040;2022-10-31T11:32:18;19.50;99.90
71367;DHT22;60030;52.274;8.040;2022-10-31T11:34:48;19.50;99.90
71367;DHT22;60030;52.274;8.040;2022-10-31T11:37:19;19.50;99.90
71367;DHT22;60030;52.274;8.040;2022-10-31T11:39:50;19.40;99.90
71367;DHT22;60030;52.274;8.040;2022-10-31T11:42:21;19.40;99.90
71367;DHT22;60030;52.274;8.040;2022-10-31T11:44:50;19.40;99.90
71367;DHT22;60030;52.274;8.040;2022-10-31T11:47:23;19.30;99.90
71367;DHT22;60030;52.274;8.040;2022-10-31T11:49:52;19.30;99.90
71367;DHT22;60030;52.274;8.040;2022-10-31T11:52:21;19.30;99.90
71367;DHT22;60030;52.274;8.040;2022-10-31T11:54:55;19.30;99.90
71367;DHT22;60030;52.274;8.040;2022-10-31T11:57:25;19.20;99.90
71367;DHT22;60030;52.274;8.040;2022-10-31T11:59:55;19.30;99.90
71367;DHT22;60030;52.274;8.040;2022-10-31T12:02:23;19.50;99.90
71367;DHT22;60030;52.274;8.040;2022-10-31T12:04:57;19.70;99.90
71367;DHT22;60030;52.274;8.040;2022-10-31T12:07:25;19.90;99.90
71367;DHT22;60030;52.274;8.040;2022-10-31T12:09:54;20.00;99.90
71367;DHT22;60030;52.274;8.040;2022-10-31T12:12:41;20.10;99.90
71367;DHT22;60030;52.274;8.040;2022-10-31T12:15:26;20.10;99.90
71367;DHT22;60030;52.274;8.040;2022-10-31T12:18:00;20.30;99.90
71367;DHT22;60030;52.274;8.040;2022-10-31T12:20:35;20.20;99.90
71367;DHT22;60030;52.274;8.040;2022-10-31T12:23:12;20.30;99.90
71367;DHT22;60030;52.274;8.040;2022-10-31T12:25:48;20.30;99.90
71367;DHT22;60030;52.274;8.040;2022-10-31T12:28:56;20.40;99.90
71367;DHT22;60030;52.274;8.040;2022-10-31T12:31:36;20.40;99.90
71367;DHT22;60030;52.274;8.040;2022-10-31T12:37:15;20.40;99.90
71367;DHT22;60030;52.274;8.040;2022-10-31T12:39:54;20.40;99.90
71367;DHT22;60030;52.274;8.040;2022-10-31T12:42:38;20.20;99.90
71367;DHT22;60030;52.274;8.040;2022-10-31T12:45:21;20.00;99.90
71367;DHT22;60030;52.274;8.040;2022-10-31T12:48:03;20.00;99.90
71367;DHT22;60030;52.274;8.040;2022-10-31T12:50:47;19.70;99.90
71367;DHT22;60030;52.274;8.040;2022-10-31T12:53:32;19.60;99.90
71367;DHT22;60030;52.274;8.040;2022-10-31T12:56:14;19.40;99.90
71367;DHT22;60030;52.274;8.040;2022-10-31T12:58:53;19.20;99.90
71367;DHT22;60030;52.274;8.040;2022-10-31T13:01:27;19.20;99.90
71367;DHT22;60030;52.274;8.040;2022-10-31T13:03:59;19.30;99.90
71367;DHT22;60030;52.274;8.040;2022-10-31T13:06:32;19.20;99.90
71367;DHT22;60030;52.274;8.040;2022-10-31T13:09:02;19.30;99.90
71367;DHT22;60030;52.274;8.040;2022-10-31T13:11:36;19.10;99.90
71367;DHT22;60030;52.274;8.040;2022-10-31T13:14:10;19.10;99.90
71367;DHT22;60030;52.274;8.040;2022-10-31T13:16:41;19.20;99.90
71367;DHT22;60030;52.274;8.040;2022-10-31T13:19:13;19.20;99.90
71367;DHT22;60030;52.274;8.040;2022-10-31T13:21:48;19.10;99.90
71367;DHT22;60030;52.274;8.040;2022-10-31T13:24:21;19.00;99.90
71367;DHT22;60030;52.274;8.040;2022-10-31T13:26:52;18.90;99.90
71367;DHT22;60030;52.274;8.040;2022-10-31T13:29:24;18.80;99.90
71367;DHT22;60030;52.274;8.040;2022-10-31T13:31:54;18.70;99.90
71367;DHT22;60030;52.274;8.040;2022-10-31T13:34:25;18.80;99.90
71367;DHT22;60030;52.274;8.040;2022-10-31T13:37:00;18.80;99.90
71367;DHT22;60030;52.274;8.040;2022-10-31T13:39:41;18.80;99.90
71367;DHT22;60030;52.274;8.040;2022-10-31T13:42:16;18.80;99.90
71367;DHT22;60030;52.274;8.040;2022-10-31T13:44:46;18.80;99.90
71367;DHT22;60030;52.274;8.040;2022-10-31T13:47:24;18.70;99.90
71367;DHT22;60030;52.274;8.040;2022-10-31T13:50:04;18.60;99.90
71367;DHT22;60030;52.274;8.040;2022-10-31T13:52:31;18.50;99.90
71367;DHT22;60030;52.274;8.040;2022-10-31T13:55:00;18.50;99.90
71367;DHT22;60030;52.274;8.040;2022-10-31T13:57:31;18.30;99.90
71367;DHT22;60030;52.274;8.040;2022-10-31T14:00:03;18.20;99.90
71367;DHT22;60030;52.274;8.040;2022-10-31T14:02:45;18.30;99.90
71367;DHT22;60030;52.274;8.040;2022-10-31T14:05:22;18.30;99.90
71367;DHT22;60030;52.274;8.040;2022-10-31T14:07:51;18.20;99.90
71367;DHT22;60030;52.274;8.040;2022-10-31T14:10:25;18.10;99.90
71367;DHT22;60030;52.274;8.040;2022-10-31T14:12:53;18.10;99.90
71367;DHT22;60030;52.274;8.040;2022-10-31T14:15:25;18.10;99.90
71367;DHT22;60030;52.274;8.040;2022-10-31T14:17:55;18.10;99.90
71367;DHT22;60030;52.274;8.040;2022-10-31T14:20:34;18.10;99.90
71367;DHT22;60030;52.274;8.040;2022-10-31T14:23:28;18.00;99.90
71367;DHT22;60030;52.274;8.040;2022-10-31T14:26:20;18.10;99.90
71367;DHT22;60030;52.274;8.040;2022-10-31T14:28:49;18.10;99.90
71367;DHT22;60030;52.274;8.040;2022-10-31T14:31:35;18.00;99.90
71367;DHT22;60030;52.274;8.040;2022-10-31T14:34:18;18.00;99.90
71367;DHT22;60030;52.274;8.040;2022-10-31T14:36:54;18.00;99.90
71367;DHT22;60030;52.274;8.040;2022-10-31T14:39:27;17.90;99.90
71367;DHT22;60030;52.274;8.040;2022-10-31T14:42:06;17.90;99.90
71367;DHT22;60030;52.274;8.040;2022-10-31T14:44:56;17.90;99.90
71367;DHT22;60030;52.274;8.040;2022-10-31T14:47:38;17.90;99.90
71367;DHT22;60030;52.274;8.040;2022-10-31T14:50:24;17.80;99.90
71367;DHT22;60030;52.274;8.040;2022-10-31T14:52:57;17.80;99.90
71367;DHT22;60030;52.274;8.040;2022-10-31T14:55:27;17.70;99.90
71367;DHT22;60030;52.274;8.040;2022-10-31T14:57:57;17.70;99.90
71367;DHT22;60030;52.274;8.040;2022-10-31T15:00:25;17.70;99.90
71367;DHT22;60030;52.274;8.040;2022-10-31T15:03:05;17.60;99.90
71367;DHT22;60030;52.274;8.040;2022-10-31T15:05:35;17.60;99.90
71367;DHT22;60030;52.274;8.040;2022-10-31T15:08:14;17.60;99.90
71367;DHT22;60030;52.274;8.040;2022-10-31T15:10:44;17.50;99.90
71367;DHT22;60030;52.274;8.040;2022-10-31T15:13:18;17.60;99.90
71367;DHT22;60030;52.274;8.040;2022-10-31T15:15:45;17.60;99.90
71367;DHT22;60030;52.274;8.040;2022-10-31T15:18:17;17.60;99.90
71367;DHT22;60030;52.274;8.040;2022-10-31T15:20:45;17.50;99.90
71367;DHT22;60030;52.274;8.040;2022-10-31T15:23:16;17.50;99.90
71367;DHT22;60030;52.274;8.040;2022-10-31T15:25:44;17.50;99.90
71367;DHT22;60030;52.274;8.040;2022-10-31T15:28:14;17.50;99.90
71367;DHT22;60030;52.274;8.040;2022-10-31T15:30:50;17.50;99.90
71367;DHT22;60030;52.274;8.040;2022-10-31T15:33:22;17.40;99.90
71367;DHT22;60030;52.274;8.040;2022-10-31T15:35:59;17.30;99.90
71367;DHT22;60030;52.274;8.040;2022-10-31T15:38:27;17.30;99.90
71367;DHT22;60030;52.274;8.040;2022-10-31T15:40:57;17.20;99.90
71367;DHT22;60030;52.274;8.040;2022-10-31T15:43:27;17.20;99.90
71367;DHT22;60030;52.274;8.040;2022-10-31T15:45:54;17.20;99.90
71367;DHT22;60030;52.274;8.040;2022-10-31T15:48:24;17.20;99.90
71367;DHT22;60030;52.274;8.040;2022-10-31T15:50:53;17.10;99.90
71367;DHT22;60030;52.274;8.040;2022-10-31T15:53:24;17.10;99.90
71367;DHT22;60030;52.274;8.040;2022-10-31T15:55:54;17.00;99.90
71367;DHT22;60030;52.274;8.040;2022-10-31T15:58:22;17.00;99.90
71367;DHT22;60030;52.274;8.040;2022-10-31T16:00:58;16.90;99.90
71367;DHT22;60030;52.274;8.040;2022-10-31T16:03:28;17.00;99.90
71367;DHT22;60030;52.274;8.040;2022-10-31T16:05:59;16.90;99.90
71367;DHT22;60030;52.274;8.040;2022-10-31T16:08:33;17.00;99.90
71367;DHT22;60030;52.274;8.040;2022-10-31T16:11:13;16.90;99.90
71367;DHT22;60030;52.274;8.040;2022-10-31T16:13:53;16.80;99.90
71367;DHT22;60030;52.274;8.040;2022-10-31T16:16:20;16.90;99.90
71367;DHT22;60030;52.274;8.040;2022-10-31T16:18:50;16.80;99.90
71367;DHT22;60030;52.274;8.040;2022-10-31T16:21:24;16.70;99.90